Time,TemperatureF,DewpointF,PressureIn,WindDirection,WindDirectionDegrees,WindSpeedMPH,WindSpeedGustMPH,Humidity,HourlyPrecipIn,Conditions,Clouds,dailyrainin,SolarRadiationWatts/m^2,SoftwareType,DateUTC
2013-06-17 00:02:00,77.0,67.0,-100.00,North,10,7.0,19.0,72,0.00,,,0.00,1.000000,,2013-06-17 10:02:00,
2013-06-17 00:12:00,77.0,67.0,-100.00,North,10,7.0,19.0,72,0.00,,,0.00,1.000000,,2013-06-17 10:12:00,
2013-06-17 00:22:00,77.0,67.0,-100.00,North,10,7.0,19.0,72,0.00,,,0.00,1.000000,,2013-06-17 10:22:00,
2013-06-17 00:33:00,77.0,67.0,-100.00,North,10,7.0,19.0,72,0.00,,,0.00,1.000000,,2013-06-17 10:33:00,
2013-06-17 01:02:00,77.0,67.0,-100.00,North,11,8.0,19.0,72,0.00,,,0.00,1.000000,,2013-06-17 11:02:00,
2013-06-17 01:11:00,77.0,67.0,-100.00,North,11,8.0,19.0,72,0.00,,,0.00,1.000000,,2013-06-17 11:11:00,
2013-06-17 01:23:00,77.0,67.0,-100.00,North,11,8.0,19.0,72,0.00,,,0.00,1.000000,,2013-06-17 11:23:00,
2013-06-17 01:33:00,77.0,67.0,-100.00,North,11,8.0,19.0,72,0.00,,,0.00,1.000000,,2013-06-17 11:33:00,
2013-06-17 02:02:00,77.0,68.0,-100.00,NNE,16,8.0,20.0,73,0.00,,,0.00,0.000000,,2013-06-17 12:02:00,
2013-06-17 02:11:00,77.0,68.0,-100.00,NNE,16,8.0,20.0,73,0.00,,,0.00,0.000000,,2013-06-17 12:11:00,
2013-06-17 02:22:00,77.0,68.0,-100.00,NNE,16,8.0,20.0,73,0.00,,,0.00,0.000000,,2013-06-17 12:22:00,
2013-06-17 02:33:00,77.0,68.0,-100.00,NNE,16,8.0,20.0,73,0.00,,,0.00,0.000000,,2013-06-17 12:33:00,
2013-06-17 03:01:00,76.0,66.0,-100.00,North,11,11.0,19.0,72,0.00,,,0.00,1.000000,,2013-06-17 13:01:00,
2013-06-17 03:11:00,76.0,66.0,-100.00,North,11,11.0,19.0,72,0.00,,,0.00,1.000000,,2013-06-17 13:11:00,
2013-06-17 03:22:00,76.0,66.0,-100.00,North,11,11.0,19.0,72,0.00,,,0.00,1.000000,,2013-06-17 13:22:00,
2013-06-17 03:32:00,76.0,66.0,-100.00,North,11,11.0,19.0,72,0.00,,,0.00,1.000000,,2013-06-17 13:32:00,
2013-06-17 04:02:00,77.0,66.0,-100.00,North,11,11.0,19.0,69,0.00,,,0.00,1.000000,,2013-06-17 14:02:00,
2013-06-17 04:11:00,77.0,66.0,-100.00,North,11,11.0,19.0,69,0.00,,,0.00,1.000000,,2013-06-17 14:11:00,
2013-06-17 04:22:00,77.0,66.0,-100.00,North,11,11.0,19.0,69,0.00,,,0.00,1.000000,,2013-06-17 14:22:00,
2013-06-17 04:34:00,77.0,66.0,-100.00,North,11,11.0,19.0,69,0.00,,,0.00,1.000000,,2013-06-17 14:34:00,
2013-06-17 05:01:00,76.0,66.0,-100.00,NNE,12,10.0,19.0,71,0.00,,,-99.99,1.000000,,2013-06-17 15:01:00,
2013-06-17 05:12:00,76.0,66.0,-100.00,NNE,12,10.0,19.0,71,0.00,,,-99.99,1.000000,,2013-06-17 15:12:00,
2013-06-17 05:22:00,76.0,66.0,-100.00,NNE,12,10.0,19.0,71,0.00,,,-99.99,1.000000,,2013-06-17 15:22:00,
2013-06-17 05:33:00,76.0,66.0,-100.00,NNE,12,10.0,19.0,71,0.00,,,-99.99,1.000000,,2013-06-17 15:33:00,
2013-06-17 06:02:00,75.0,65.0,-100.00,North,11,8.0,16.0,72,0.00,,,0.00,1.000000,,2013-06-17 16:02:00,
2013-06-17 06:11:00,75.0,65.0,-100.00,North,11,8.0,16.0,72,0.00,,,0.00,1.000000,,2013-06-17 16:11:00,
2013-06-17 06:22:00,75.0,65.0,-100.00,North,11,8.0,16.0,72,0.00,,,0.00,1.000000,,2013-06-17 16:22:00,
2013-06-17 06:33:00,75.0,65.0,-100.00,North,11,8.0,16.0,72,0.00,,,0.00,1.000000,,2013-06-17 16:33:00,
2013-06-17 06:54:00,76.0,66.0,-100.00,NNE,18,8.0,20.0,72,0.00,,,0.00,15.000000,,2013-06-17 16:54:00,
2013-06-17 07:02:00,76.0,66.0,-100.00,NNE,18,8.0,20.0,72,0.00,,,0.00,15.000000,,2013-06-17 17:02:00,
2013-06-17 07:11:00,76.0,66.0,-100.00,NNE,18,8.0,20.0,72,0.00,,,0.00,15.000000,,2013-06-17 17:11:00,
2013-06-17 07:22:00,76.0,66.0,-100.00,NNE,18,8.0,20.0,72,0.00,,,0.00,15.000000,,2013-06-17 17:22:00,
2013-06-17 07:33:00,76.0,66.0,-100.00,NNE,18,8.0,20.0,72,0.00,,,0.00,15.000000,,2013-06-17 17:33:00,
2013-06-17 08:02:00,77.0,67.0,-100.00,North,11,10.0,21.0,72,0.00,,,-99.99,47.000000,,2013-06-17 18:02:00,
2013-06-17 08:12:00,77.0,67.0,-100.00,North,11,10.0,21.0,72,0.00,,,-99.99,47.000000,,2013-06-17 18:12:00,
2013-06-17 08:23:00,77.0,67.0,-100.00,North,11,10.0,21.0,72,0.00,,,-99.99,47.000000,,2013-06-17 18:23:00,
2013-06-17 08:33:00,77.0,67.0,-100.00,North,11,10.0,21.0,72,0.00,,,-99.99,47.000000,,2013-06-17 18:33:00,
2013-06-17 09:02:00,76.0,67.0,-100.00,NNE,15,10.0,19.0,74,0.03,,,0.03,91.000000,,2013-06-17 19:02:00,
2013-06-17 09:11:00,76.0,67.0,-100.00,NNE,15,10.0,19.0,74,0.03,,,0.03,91.000000,,2013-06-17 19:11:00,
2013-06-17 09:22:00,76.0,67.0,-100.00,NNE,15,10.0,19.0,74,0.03,,,0.03,91.000000,,2013-06-17 19:22:00,
2013-06-17 09:33:00,76.0,67.0,-100.00,NNE,15,10.0,19.0,74,0.03,,,0.03,91.000000,,2013-06-17 19:33:00,
2013-06-17 09:54:00,81.0,72.0,-100.00,NNE,15,7.0,19.0,75,0.00,,,0.03,361.000000,,2013-06-17 19:54:00,
2013-06-17 10:02:00,81.0,72.0,-100.00,NNE,15,7.0,19.0,75,0.00,,,0.03,361.000000,,2013-06-17 20:02:00,
2013-06-17 10:11:00,81.0,72.0,-100.00,NNE,15,7.0,19.0,75,0.00,,,0.03,361.000000,,2013-06-17 20:11:00,
2013-06-17 10:22:00,81.0,72.0,-100.00,NNE,15,7.0,19.0,75,0.00,,,0.03,361.000000,,2013-06-17 20:22:00,
2013-06-17 10:33:00,81.0,72.0,-100.00,NNE,15,7.0,19.0,75,0.00,,,0.03,361.000000,,2013-06-17 20:33:00,
2013-06-17 11:01:00,89.0,69.0,-100.00,NNE,22,10.0,19.0,52,0.00,,,0.03,744.000000,,2013-06-17 21:01:00,
2013-06-17 11:12:00,89.0,69.0,-100.00,NNE,22,10.0,19.0,52,0.00,,,0.03,744.000000,,2013-06-17 21:12:00,
2013-06-17 11:22:00,89.0,69.0,-100.00,NNE,22,10.0,19.0,52,0.00,,,0.03,744.000000,,2013-06-17 21:22:00,
2013-06-17 11:33:00,89.0,69.0,-100.00,NNE,22,10.0,19.0,52,0.00,,,0.03,744.000000,,2013-06-17 21:33:00,
2013-06-17 13:02:00,91.0,64.0,-100.00,NNE,18,8.0,21.0,41,0.00,,,0.03,937.000000,,2013-06-17 23:02:00,
2013-06-17 13:11:00,91.0,64.0,-100.00,NNE,18,8.0,21.0,41,0.00,,,0.03,937.000000,,2013-06-17 23:11:00,
2013-06-17 13:22:00,91.0,64.0,-100.00,NNE,18,8.0,21.0,41,0.00,,,0.03,937.000000,,2013-06-17 23:22:00,
2013-06-17 13:32:00,91.0,64.0,-100.00,NNE,18,8.0,21.0,41,0.00,,,0.03,937.000000,,2013-06-17 23:32:00,
2013-06-17 14:01:00,91.0,65.0,-100.00,NNE,12,8.0,28.0,43,0.00,,,0.03,967.000000,,2013-06-18 00:01:00,
2013-06-17 14:12:00,91.0,65.0,-100.00,NNE,12,8.0,28.0,43,0.00,,,0.03,967.000000,,2013-06-18 00:12:00,
2013-06-17 14:22:00,91.0,65.0,-100.00,NNE,12,8.0,28.0,43,0.00,,,0.03,967.000000,,2013-06-18 00:22:00,
2013-06-17 14:32:00,91.0,65.0,-100.00,NNE,12,8.0,28.0,43,0.00,,,0.03,967.000000,,2013-06-18 00:32:00,
2013-06-17 15:01:00,89.0,67.0,-100.00,NNE,28,8.0,22.0,49,0.00,,,0.03,864.000000,,2013-06-18 01:01:00,
2013-06-17 15:11:00,89.0,67.0,-100.00,NNE,28,8.0,22.0,49,0.00,,,0.03,864.000000,,2013-06-18 01:11:00,
2013-06-17 15:23:00,89.0,67.0,-100.00,NNE,28,8.0,22.0,49,0.00,,,0.03,864.000000,,2013-06-18 01:23:00,
2013-06-17 15:33:00,89.0,67.0,-100.00,NNE,28,8.0,22.0,49,0.00,,,0.03,864.000000,,2013-06-18 01:33:00,
2013-06-17 16:02:00,86.0,65.0,-100.00,NNE,32,8.0,25.0,49,0.00,,,0.03,481.000000,,2013-06-18 02:02:00,
2013-06-17 16:11:00,86.0,65.0,-100.00,NNE,32,8.0,25.0,49,0.00,,,0.03,481.000000,,2013-06-18 02:11:00,
2013-06-17 16:22:00,86.0,65.0,-100.00,NNE,32,8.0,25.0,49,0.00,,,0.03,481.000000,,2013-06-18 02:22:00,
2013-06-17 16:34:00,86.0,65.0,-100.00,NNE,32,8.0,25.0,49,0.00,,,0.03,481.000000,,2013-06-18 02:34:00,
2013-06-17 16:53:00,84.0,62.0,-100.00,NNE,14,6.0,16.0,48,0.00,,,0.03,433.000000,,2013-06-18 02:53:00,
2013-06-17 17:02:00,84.0,62.0,-100.00,NNE,14,6.0,16.0,48,0.00,,,0.03,433.000000,,2013-06-18 03:02:00,
2013-06-17 17:12:00,84.0,62.0,-100.00,NNE,14,6.0,16.0,48,0.00,,,0.03,433.000000,,2013-06-18 03:12:00,
2013-06-17 17:23:00,84.0,62.0,-100.00,NNE,14,6.0,16.0,48,0.00,,,0.03,433.000000,,2013-06-18 03:23:00,
2013-06-17 17:33:00,84.0,62.0,-100.00,NNE,14,6.0,16.0,48,0.00,,,0.03,433.000000,,2013-06-18 03:33:00,
2013-06-17 18:01:00,81.0,64.0,-100.00,North,11,8.0,17.0,57,0.00,,,0.03,217.000000,,2013-06-18 04:01:00,
2013-06-17 18:11:00,81.0,64.0,-100.00,North,11,8.0,17.0,57,0.00,,,0.03,217.000000,,2013-06-18 04:11:00,
2013-06-17 18:22:00,81.0,64.0,-100.00,North,11,8.0,17.0,57,0.00,,,0.03,217.000000,,2013-06-18 04:22:00,
2013-06-17 18:34:00,81.0,64.0,-100.00,North,11,8.0,17.0,57,0.00,,,0.03,217.000000,,2013-06-18 04:34:00,
2013-06-17 19:02:00,77.0,64.0,-100.00,NNE,17,7.0,21.0,65,0.00,,,0.03,68.000000,,2013-06-18 05:02:00,
2013-06-17 19:12:00,77.0,64.0,-100.00,NNE,17,7.0,21.0,65,0.00,,,0.03,68.000000,,2013-06-18 05:12:00,
2013-06-17 19:22:00,77.0,64.0,-100.00,NNE,17,7.0,21.0,65,0.00,,,0.03,68.000000,,2013-06-18 05:22:00,
2013-06-17 19:33:00,77.0,64.0,-100.00,NNE,17,7.0,21.0,65,0.00,,,0.03,68.000000,,2013-06-18 05:33:00,
2013-06-17 20:02:00,72.0,62.0,-100.00,NNE,18,11.0,22.0,70,0.00,,,0.03,24.000000,,2013-06-18 06:02:00,
2013-06-17 20:11:00,72.0,62.0,-100.00,NNE,18,11.0,22.0,70,0.00,,,0.03,24.000000,,2013-06-18 06:11:00,
2013-06-17 20:23:00,72.0,62.0,-100.00,NNE,18,11.0,22.0,70,0.00,,,0.03,24.000000,,2013-06-18 06:23:00,
2013-06-17 20:32:00,72.0,62.0,-100.00,NNE,18,11.0,22.0,70,0.00,,,0.03,24.000000,,2013-06-18 06:32:00,
2013-06-17 21:02:00,77.0,67.0,-100.00,NNE,21,10.0,21.0,71,0.00,,,0.03,0.000000,,2013-06-18 07:02:00,
2013-06-17 21:12:00,77.0,67.0,-100.00,NNE,21,10.0,21.0,71,0.00,,,0.03,0.000000,,2013-06-18 07:12:00,
2013-06-17 21:22:00,77.0,67.0,-100.00,NNE,21,10.0,21.0,71,0.00,,,0.03,0.000000,,2013-06-18 07:22:00,
2013-06-17 21:33:00,77.0,67.0,-100.00,NNE,21,10.0,21.0,71,0.00,,,0.03,0.000000,,2013-06-18 07:33:00,
2013-06-17 22:01:00,74.0,64.0,-100.00,NNE,15,9.0,20.0,71,0.00,,,-99.99,1.000000,,2013-06-18 08:01:00,
2013-06-17 22:11:00,74.0,64.0,-100.00,NNE,15,9.0,20.0,71,0.00,,,-99.99,1.000000,,2013-06-18 08:11:00,
2013-06-17 22:23:00,74.0,64.0,-100.00,NNE,15,9.0,20.0,71,0.00,,,-99.99,1.000000,,2013-06-18 08:23:00,
2013-06-17 22:32:00,74.0,64.0,-100.00,NNE,15,9.0,20.0,71,0.00,,,-99.99,1.000000,,2013-06-18 08:32:00,
2013-06-17 23:01:00,76.0,68.0,-100.00,NNE,19,11.0,22.0,76,0.00,,,0.03,1.000000,,2013-06-18 09:01:00,
2013-06-17 23:12:00,76.0,68.0,-100.00,NNE,19,11.0,22.0,76,0.00,,,0.03,1.000000,,2013-06-18 09:12:00,
2013-06-17 23:22:00,76.0,68.0,-100.00,NNE,19,11.0,22.0,76,0.00,,,0.03,1.000000,,2013-06-18 09:22:00,
2013-06-17 23:34:00,76.0,68.0,-100.00,NNE,19,11.0,22.0,76,0.00,,,0.03,1.000000,,2013-06-18 09:34:00,